Архив погоды в Верховье Лотты

Метеограмма Верховье Лотты
Понедельник, 18 Июня
Время местн. Темп Ветер Видим Явления Облачность нижн/средн/верх Атм. давл. Влжн Точка росы ВНГО R Сост. почвы Tg s
Напр Скр Прв ур.ст ур.м изм
12:00 - +20.4° В 2 5 - - - 747 757 -2.6 46% +8.3° - - - - -
09:00 +11.1° В 1 3 - - преимущественно облачно 750 762 -2 71% +6.1° более 2.5 км 0 Сухая (без трещин) +7° -
06:00 - +11.1° В 1 3 - - - 752 762 -1.3 71% +6.1° - - - - -
03:00 - +7.3° В,С-В 1 2 - - - 753 763 +0.5 86% +5.1° - - - - -
00:00 - +12.8° В 1 3 - - - 753 764 +0.5 65% +6.4° - - - - -
Воскресенье, 17 Июня
Время местн. Темп Ветер Видим Явления Облачность нижн/средн/верх Атм. давл. Влжн Точка росы ВНГО R Сост. почвы Tg s
Напр Скр Прв ур.ст ур.м изм
21:00 +19.7° С,С-З 1 2 50 км - незначительная облачность 753 763 +0.1 24% -1.3° более 2.5 км 0 - - -
18:00 - +21.4° З 1 4 - - - 753 763 +0.2 21% -1.5° - - - - -
15:00 - +21.3° З 2 4 - - - 753 763 +0.2 23% -0.5° - - - - -
12:00 - +20.1° З 2 5 - - - 752 763 +0.3 27% +0.6° - - - - -
09:00 +17.2° З 1 2 50 км - незначительная облачность 752 762 +0.7 42% +4.1° более 2.5 км 0 Сухая (без трещин) +6° -
06:00 - +12.1° З,Ю-З 1 2 - - - 751 762 +0.9 71% +7° - - - - -
03:00 - +5.1° штиль 0 - - - - 751 761 +0.7 98% +4.8° - - - - -
00:00 - +7.9° Ю-З 1 2 - - - 750 760 +0.2 88% +6.1° - - - - -
Суббота, 16 Июня
Время местн. Темп Ветер Видим Явления Облачность нижн/средн/верх Атм. давл. Влжн Точка росы ВНГО R Сост. почвы Tg s
Напр Скр Прв ур.ст ур.м изм
21:00 +12° З 1 11 40 км слабый ливневый дождь облачно 750 760 +1.6 80% +8.6° более 2.5 км 0 - - -
18:00 - +20.9° Ю-З 2 11 - - - 748 758 +0.1 28% +1.5° - - - - -
15:00 - +21.7° Ю-З 4 11 - - - 748 758 +0.3 24% +0.4° - - - - -
12:00 - +20.3° Ю-З 3 16 - - - 748 758 +0.6 32% +3° - - - - -
09:00 +17.7° Ю-З 2 9 50 км - незначительная облачность 747 757 +0.9 41% +4.3° более 2.5 км 0 Сухая (без трещин) +8° -
06:00 - +14.1° Ю-З 3 7 - - - 746 757 +1.3 61% +6.7° - - - - -
03:00 - +14° Ю-З 2 6 - - - 745 755 +1 57% +5.5° - - - - -
00:00 - +15.4° Ю 1 10 - - - 744 754 +0.5 60% +7.7° - - - - -
Пятница, 15 Июня
Время местн. Темп Ветер Видим Явления Облачность нижн/средн/верх Атм. давл. Влжн Точка росы ВНГО R Сост. почвы Tg s
Напр Скр Прв ур.ст ур.м изм
21:00 +18.5° Ю 2 4 50 км - переменная облачность 744 754 -0.2 60% +10.6° более 2.5 км 0 - - -
18:00 - +17.9° Ю 3 9 - - - 744 754 -0.5 56% +9° - - - - -
15:00 - +18.1° Ю 3 8 - - - 744 754 -0.5 47% +6.7° - - - - -
12:00 - +13° Ю,Ю-В 2 6 - - - 744 755 -0.4 62% +5.8° - - - - -
09:00 +11.4° Ю-В 2 6 50 км - облачно 745 755 -1 56% +2.9° более 2.5 км 0 Влажная (без луж) +7° -